createdAt,value
2022-10-09T00:01:22.180Z,99048.78
2022-10-09T00:03:49.918Z,99055.09
2022-10-09T00:06:19.351Z,99061.44
2022-10-09T00:08:46.268Z,99063.94
2022-10-09T00:11:21.126Z,99070.22
2022-10-09T00:13:48.445Z,99065.56
2022-10-09T00:16:16.053Z,99066.69
2022-10-09T00:18:43.230Z,99069.41
2022-10-09T00:21:20.699Z,99070.22
2022-10-09T00:23:48.098Z,99081.19
2022-10-09T00:26:15.071Z,99071.06
2022-10-09T00:28:42.012Z,99076.53
2022-10-09T00:31:09.599Z,99081.19
2022-10-09T00:33:36.764Z,99078.47
2022-10-09T00:36:14.297Z,99082.03
2022-10-09T00:38:41.322Z,99089.19
2022-10-09T00:41:08.260Z,99093.84
2022-10-09T00:43:46.757Z,99088.34
2022-10-09T00:46:20.783Z,99093.84
2022-10-09T00:48:48.683Z,99087.28
2022-10-09T00:51:15.591Z,99092.78
2022-10-09T00:53:42.516Z,99097.19
2022-10-09T00:56:09.415Z,99095.53
2022-10-09T00:58:36.353Z,99105.41
2022-10-09T01:01:03.306Z,99104.59
2022-10-09T01:03:30.308Z,99106.50
2022-10-09T01:06:09.686Z,99107.34
2022-10-09T01:09:31.607Z,99107.09
2022-10-09T01:12:36.372Z,99101.00
2022-10-09T01:15:33.090Z,99102.69
2022-10-09T01:18:21.126Z,99104.59
2022-10-09T01:21:12.588Z,99108.41
2022-10-09T01:24:14.719Z,99106.50
2022-10-09T01:26:57.142Z,99113.06
2022-10-09T01:29:24.663Z,99111.97
2022-10-09T01:31:51.540Z,99111.97
2022-10-09T01:34:19.454Z,99115.56
2022-10-09T01:36:46.392Z,99117.47
2022-10-09T01:39:16.553Z,99113.91
2022-10-09T01:41:43.897Z,99135.59
2022-10-09T01:44:22.617Z,99131.19
2022-10-09T01:46:49.592Z,99133.94
2022-10-09T01:49:34.160Z,99144.06
2022-10-09T01:52:06.802Z,99133.94
2022-10-09T01:54:39.320Z,99140.25
2022-10-09T01:57:07.113Z,99139.44
2022-10-09T01:59:36.796Z,99144.91
2022-10-09T02:02:03.781Z,99149.56
2022-10-09T02:04:30.813Z,99154.22
2022-10-09T02:06:57.759Z,99160.53
2022-10-09T02:09:24.763Z,99159.69
2022-10-09T02:11:55.817Z,99159.69
2022-10-09T02:14:22.812Z,99164.13
2022-10-09T02:16:57.192Z,99165.19
2022-10-09T02:19:27.192Z,99172.34
2022-10-09T02:22:06.090Z,99165.19
2022-10-09T02:24:33.034Z,99180.59
2022-10-09T02:27:00.085Z,99181.66
2022-10-09T02:29:27.102Z,99187.16
2022-10-09T02:31:54.329Z,99189.88
2022-10-09T02:34:21.276Z,99195.38
2022-10-09T02:36:48.466Z,99196.44
2022-10-09T02:39:15.469Z,99192.63
2022-10-09T02:41:42.387Z,99191.81
2022-10-09T02:44:09.410Z,99196.44
2022-10-09T02:46:38.155Z,99204.69
2022-10-09T02:49:05.947Z,99211.28
2022-10-09T02:51:32.990Z,99216.75
2022-10-09T02:53:59.976Z,99208.75
2022-10-09T02:56:26.966Z,99215.94
2022-10-09T02:58:53.919Z,99216.75
2022-10-09T03:01:20.938Z,99213.41
2022-10-09T03:03:47.881Z,99215.09
2022-10-09T03:06:16.615Z,99217.84
2022-10-09T03:08:45.089Z,99215.09
2022-10-09T03:11:12.534Z,99224.38
2022-10-09T03:13:40.008Z,99223.31
2022-10-09T03:16:11.104Z,99224.38
2022-10-09T03:18:38.210Z,99229.03
2022-10-09T03:21:08.918Z,99235.38
2022-10-09T03:23:35.996Z,99234.53
2022-10-09T03:26:05.126Z,99235.59
2022-10-09T03:28:32.277Z,99233.69
2022-10-09T03:30:59.315Z,99246.56
2022-10-09T03:33:26.299Z,99238.59
2022-10-09T03:35:53.237Z,99248.50
2022-10-09T03:38:20.177Z,99255.06
2022-10-09T03:40:47.080Z,99251.50
2022-10-09T03:43:14.017Z,99253.41
2022-10-09T03:45:41.677Z,99255.31
2022-10-09T03:48:09.665Z,99260.78
2022-10-09T03:50:37.938Z,99265.44
2022-10-09T03:53:05.716Z,99259.94
2022-10-09T03:55:32.869Z,99256.97
2022-10-09T03:57:59.886Z,99267.13
2022-10-09T04:00:26.930Z,99268.19
2022-10-09T04:02:53.988Z,99267.34
2022-10-09T04:05:20.998Z,99270.94
2022-10-09T04:07:47.956Z,99270.94
2022-10-09T04:10:14.924Z,99277.50
2022-10-09T04:12:41.956Z,99279.44
2022-10-09T04:15:09.618Z,99278.59
2022-10-09T04:17:36.709Z,99282.41
2022-10-09T04:20:03.982Z,99284.06
2022-10-09T04:22:30.947Z,99282.41
2022-10-09T04:24:57.872Z,99282.41
2022-10-09T04:27:24.848Z,99283.25
2022-10-09T04:29:51.782Z,99289.78
2022-10-09T04:32:18.698Z,99283.47
2022-10-09T04:34:45.652Z,99290.88
2022-10-09T04:37:12.613Z,99288.13
2022-10-09T04:39:39.538Z,99294.44
2022-10-09T04:42:06.593Z,99301.84
2022-10-09T04:44:33.569Z,99299.09
2022-10-09T04:47:00.481Z,99295.50
2022-10-09T04:49:27.440Z,99300.16
2022-10-09T04:51:54.391Z,99306.50
2022-10-09T04:54:21.371Z,99309.50
2022-10-09T04:56:48.343Z,99308.66
2022-10-09T04:59:15.244Z,99324.06
2022-10-09T05:01:42.271Z,99315.81
2022-10-09T05:04:09.259Z,99322.38
2022-10-09T05:06:36.200Z,99339.91
2022-10-09T05:09:03.124Z,99328.09
2022-10-09T05:11:30.066Z,99334.41
2022-10-09T05:13:57.754Z,99338.22
2022-10-09T05:16:29.003Z,99344.56
2022-10-09T05:18:57.170Z,99344.56
2022-10-09T05:21:24.659Z,99344.56
2022-10-09T05:23:53.025Z,99351.09
2022-10-09T05:26:20.868Z,99343.72
2022-10-09T05:28:48.062Z,99340.13
2022-10-09T05:31:23.399Z,99342.03
2022-10-09T05:33:50.570Z,99347.53
2022-10-09T05:36:17.586Z,99354.09
2022-10-09T05:38:44.794Z,99353.00
2022-10-09T05:41:13.423Z,99359.59
2022-10-09T05:43:42.225Z,99365.91
2022-10-09T05:46:20.019Z,99367.84
2022-10-09T05:48:51.953Z,99367.84
2022-10-09T05:51:20.527Z,99363.41
2022-10-09T05:53:47.776Z,99365.31
2022-10-09T05:56:25.888Z,99370.81
2022-10-09T05:59:02.903Z,99380.94
2022-10-09T06:01:37.194Z,99375.44
2022-10-09T06:04:04.272Z,99390.22
2022-10-09T06:06:32.656Z,99393.81
2022-10-09T06:08:59.692Z,99388.31
2022-10-09T06:11:31.947Z,99395.72
2022-10-09T06:14:03.186Z,99397.63
2022-10-09T06:16:31.697Z,99396.56
2022-10-09T06:18:58.888Z,99405.84
2022-10-09T06:21:26.869Z,99403.09
2022-10-09T06:23:55.593Z,99405.03
2022-10-09T06:26:22.850Z,99411.34
2022-10-09T06:28:49.991Z,99413.28
2022-10-09T06:31:18.704Z,99411.59
2022-10-09T06:33:46.144Z,99412.66
2022-10-09T06:36:14.832Z,99418.16
2022-10-09T06:38:42.163Z,99420.91
2022-10-09T06:41:13.388Z,99423.03
2022-10-09T06:43:40.657Z,99427.94
2022-10-09T06:46:09.623Z,99436.16
2022-10-09T06:48:37.236Z,99436.34
2022-10-09T06:51:11.660Z,99448.16
2022-10-09T06:53:40.171Z,99457.47
2022-10-09T06:56:08.797Z,99462.09
2022-10-09T06:58:35.843Z,99457.47
2022-10-09T07:01:13.310Z,99460.22
2022-10-09T07:03:41.312Z,99458.56
2022-10-09T07:06:12.821Z,99460.69
2022-10-09T07:08:40.516Z,99461.31
2022-10-09T07:11:14.207Z,99460.69
2022-10-09T07:13:42.126Z,99465.09
2022-10-09T07:16:09.364Z,99469.97
2022-10-09T07:18:36.416Z,99474.63
2022-10-09T07:21:07.480Z,99471.03
2022-10-09T07:23:34.979Z,99471.88
2022-10-09T07:26:02.190Z,99477.63
2022-10-09T07:28:29.829Z,99473.22
2022-10-09T07:30:57.051Z,99479.53
2022-10-09T07:33:24.131Z,99492.41
2022-10-09T07:35:58.183Z,99491.34
2022-10-09T07:38:25.218Z,99491.34
2022-10-09T07:40:52.787Z,99492.41
2022-10-09T07:43:19.961Z,99495.16
2022-10-09T07:45:47.212Z,99493.25
2022-10-09T07:48:14.241Z,99491.34
2022-10-09T07:50:41.114Z,99497.91
2022-10-09T07:53:09.041Z,99497.06
2022-10-09T07:55:36.663Z,99496.22
2022-10-09T07:58:03.607Z,99500.84
2022-10-09T08:00:30.526Z,99506.34
2022-10-09T08:02:57.553Z,99507.19
2022-10-09T08:05:24.521Z,99502.75
2022-10-09T08:07:51.766Z,99501.94
2022-10-09T08:10:18.713Z,99498.97
2022-10-09T08:12:45.833Z,99503.59
2022-10-09T08:15:13.492Z,99498.97
2022-10-09T08:17:40.474Z,99508.25
2022-10-09T08:20:07.952Z,99508.25
2022-10-09T08:22:34.890Z,99504.44
2022-10-09T08:25:01.821Z,99504.44
2022-10-09T08:27:28.794Z,99502.75
2022-10-09T08:29:55.721Z,99509.94
2022-10-09T08:32:22.632Z,99515.63
2022-10-09T08:34:49.655Z,99512.09
2022-10-09T08:37:16.882Z,99509.09
2022-10-09T08:39:43.847Z,99506.13
2022-10-09T08:42:23.230Z,99507.78
2022-10-09T08:44:50.649Z,99511.13
2022-10-09T08:47:22.164Z,99509.00
2022-10-09T08:49:50.966Z,99511.47
2022-10-09T08:52:24.067Z,99518.66
2022-10-09T08:54:51.024Z,99521.19
2022-10-09T08:57:18.035Z,99515.72
2022-10-09T08:59:45.059Z,99525.63
2022-10-09T09:02:36.355Z,99520.97
2022-10-09T09:05:19.901Z,99526.19
2022-10-09T09:07:58.879Z,99529.56
2022-10-09T09:10:43.244Z,99530.41
2022-10-09T09:13:39.224Z,99530.13
2022-10-09T09:16:14.773Z,99536.72
2022-10-09T09:19:03.078Z,99531.22
2022-10-09T09:21:37.953Z,99525.75
2022-10-09T09:24:10.540Z,99526.81
2022-10-09T09:26:37.504Z,99528.50
2022-10-09T09:29:04.452Z,99524.06
2022-10-09T09:31:36.826Z,99523.47
2022-10-09T09:34:34.965Z,99513.31
2022-10-09T09:37:01.924Z,99516.91
2022-10-09T09:42:20.139Z,99520.72
2022-10-09T09:44:49.848Z,99508.06
2022-10-09T09:47:25.870Z,99516.28
2022-10-09T09:49:58.013Z,99512.75
2022-10-09T09:52:25.270Z,99511.91
2022-10-09T09:54:52.288Z,99517.38
2022-10-09T09:57:28.221Z,99516.28
2022-10-09T09:59:55.119Z,99510.22
2022-10-09T10:02:23.390Z,99517.38
2022-10-09T10:04:54.593Z,99516.53
2022-10-09T10:07:38.039Z,99515.72
2022-10-09T10:10:19.728Z,99518.44
2022-10-09T10:12:58.728Z,99518.44
2022-10-09T10:15:32.695Z,99514.00
2022-10-09T10:18:00.766Z,99520.13
2022-10-09T10:20:28.422Z,99514.00
2022-10-09T10:22:56.100Z,99526.69
2022-10-09T10:25:26.537Z,99521.19
2022-10-09T10:27:58.235Z,99509.56
2022-10-09T10:30:25.181Z,99513.16
2022-10-09T10:33:01.129Z,99522.22
2022-10-09T10:35:32.708Z,99510.41
2022-10-09T10:38:00.032Z,99510.66
2022-10-09T10:40:32.272Z,99509.00
2022-10-09T10:43:02.086Z,99509.00
2022-10-09T10:45:35.439Z,99511.75
2022-10-09T10:48:03.114Z,99510.66
2022-10-09T10:50:36.554Z,99515.06
2022-10-09T10:53:37.965Z,99513.16
2022-10-09T10:56:12.927Z,99520.31
2022-10-09T10:58:59.812Z,99514.00
2022-10-09T11:01:52.472Z,99512.31
2022-10-09T11:04:33.857Z,99517.81
2022-10-09T11:07:13.842Z,99516.97
2022-10-09T11:10:14.115Z,99510.66
2022-10-09T11:12:48.544Z,99513.41
2022-10-09T11:15:34.442Z,99521.66
2022-10-09T11:18:06.955Z,99517.81
2022-10-09T11:20:55.597Z,99519.47
2022-10-09T11:23:37.367Z,99519.47
2022-10-09T11:26:04.197Z,99511.47
2022-10-09T11:28:36.353Z,99510.41
2022-10-09T11:31:19.962Z,99514.00
2022-10-09T11:33:51.576Z,99512.97
2022-10-09T11:36:33.382Z,99505.56
2022-10-09T11:39:02.374Z,99512.75
2022-10-09T11:41:29.397Z,99498.78
2022-10-09T11:44:27.565Z,99502.34
2022-10-09T11:47:01.931Z,99495.81
2022-10-09T11:49:36.403Z,99493.06
2022-10-09T11:52:27.559Z,99489.47
2022-10-09T11:54:54.461Z,99485.66
2022-10-09T11:57:30.658Z,99481.84
2022-10-09T12:00:08.078Z,99483.50
2022-10-09T12:02:35.139Z,99486.84
2022-10-09T12:05:02.098Z,99485.78
2022-10-09T12:07:36.465Z,99485.53
2022-10-09T12:10:07.030Z,99487.00
2022-10-09T12:12:34.043Z,99488.06
2022-10-09T12:15:11.403Z,99477.69
2022-10-09T12:17:45.531Z,99477.44
2022-10-09T12:20:23.670Z,99465.16
2022-10-09T12:23:21.640Z,99465.75
2022-10-09T12:25:44.882Z,99468.25
2022-10-09T12:28:36.878Z,99472.69
2022-10-09T12:31:05.679Z,99471.84
2022-10-09T12:33:40.849Z,99474.59
2022-10-09T12:36:13.922Z,99472.91
2022-10-09T12:38:41.128Z,99470.16
2022-10-09T12:41:20.026Z,99473.97
2022-10-09T12:43:47.478Z,99466.81
2022-10-09T12:46:14.482Z,99467.41
2022-10-09T12:48:43.210Z,99472.91
2022-10-09T12:51:17.479Z,99469.31
2022-10-09T12:53:51.717Z,99469.94
2022-10-09T12:56:38.864Z,99468.03
2022-10-09T12:59:06.760Z,99463.72
2022-10-09T13:01:34.554Z,99467.88
2022-10-09T13:04:04.440Z,99462.16
2022-10-09T13:06:43.128Z,99473.28
2022-10-09T13:09:22.244Z,99458.22
2022-10-09T13:12:12.301Z,99466.81
2022-10-09T13:14:44.200Z,99463.34
2022-10-09T13:17:40.950Z,99467.53
2022-10-09T13:20:16.819Z,99465.13
2022-10-09T13:23:00.293Z,99457.25
2022-10-09T13:25:28.691Z,99452.94
2022-10-09T13:27:55.612Z,99463.69
2022-10-09T13:30:22.664Z,99465.59
2022-10-09T13:32:50.118Z,99457.34
2022-10-09T13:35:17.557Z,99455.69
2022-10-09T13:37:44.473Z,99448.28
2022-10-09T13:40:14.673Z,99451.03
2022-10-09T13:42:41.665Z,99449.97
2022-10-09T13:45:10.146Z,99457.34
2022-10-09T13:47:37.129Z,99455.22
2022-10-09T13:50:04.364Z,99449.97
2022-10-09T13:52:31.325Z,99444.47
2022-10-09T13:54:58.271Z,99441.50
2022-10-09T13:57:25.203Z,99448.63
2022-10-09T13:59:52.158Z,99443.13
2022-10-09T14:02:19.294Z,99443.13
2022-10-09T14:04:46.220Z,99439.31
2022-10-09T14:07:13.237Z,99439.09
2022-10-09T14:09:40.166Z,99440.75
2022-10-09T14:12:07.120Z,99439.66
2022-10-09T14:14:34.173Z,99435.84
2022-10-09T14:17:01.090Z,99438.38
2022-10-09T14:19:28.392Z,99440.03
2022-10-09T14:21:55.915Z,99427.94
2022-10-09T14:24:22.913Z,99423.56
2022-10-09T14:26:51.813Z,99426.88
2022-10-09T14:29:18.938Z,99423.91
2022-10-09T14:31:46.071Z,99421.38
2022-10-09T14:34:13.977Z,99413.75
2022-10-09T14:36:42.251Z,99418.41
2022-10-09T14:39:09.170Z,99416.50
2022-10-09T14:41:37.926Z,99409.09
2022-10-09T14:44:05.201Z,99422.84
2022-10-09T14:46:37.797Z,99422.00
2022-10-09T14:49:07.628Z,99415.41
2022-10-09T14:51:37.043Z,99412.91
2022-10-09T14:54:04.727Z,99405.50
2022-10-09T14:56:31.649Z,99403.84
2022-10-09T14:59:00.466Z,99401.09
2022-10-09T15:01:27.918Z,99403.22
2022-10-09T15:03:54.912Z,99396.91
2022-10-09T15:06:24.400Z,99389.78
2022-10-09T15:08:52.631Z,99394.41
2022-10-09T15:11:19.866Z,99388.94
2022-10-09T15:13:46.909Z,99393.59
2022-10-09T15:16:17.605Z,99403.72
2022-10-09T15:18:44.782Z,99401.22
2022-10-09T15:21:16.538Z,99389.41
2022-10-09T15:23:43.624Z,99402.56
2022-10-09T15:26:10.704Z,99389.06
2022-10-09T15:28:38.067Z,99396.47
2022-10-09T15:31:06.187Z,99392.06
2022-10-09T15:33:33.384Z,99399.69
2022-10-09T15:36:00.380Z,99398.84
2022-10-09T15:38:27.348Z,99390.84
2022-10-09T15:40:55.607Z,99402.94
2022-10-09T15:43:24.622Z,99399.34
2022-10-09T15:45:54.273Z,99396.84
2022-10-09T15:48:22.747Z,99397.06
2022-10-09T15:50:52.285Z,99389.94
2022-10-09T15:53:20.376Z,99386.34
2022-10-09T15:55:48.764Z,99396.50
2022-10-09T15:58:16.059Z,99395.66
2022-10-09T16:00:44.510Z,99394.81
2022-10-09T16:03:11.504Z,99404.97
2022-10-09T16:05:43.455Z,99403.28
2022-10-09T16:08:11.485Z,99395.31
2022-10-09T16:10:48.668Z,99390.91
2022-10-09T16:13:16.200Z,99402.72
2022-10-09T16:15:43.727Z,99407.59
2022-10-09T16:18:10.707Z,99409.78
2022-10-09T16:20:38.052Z,99411.91
2022-10-09T16:23:05.062Z,99410.22
2022-10-09T16:25:32.056Z,99412.16
2022-10-09T16:27:59.092Z,99423.38
2022-10-09T16:30:26.299Z,99416.22
2022-10-09T16:32:53.381Z,99424.44
2022-10-09T16:35:21.849Z,99425.50
2022-10-09T16:37:48.766Z,99427.41
2022-10-09T16:40:15.874Z,99422.19
2022-10-09T16:42:42.755Z,99422.19
2022-10-09T16:45:10.410Z,99422.19
2022-10-09T16:47:38.199Z,99427.69
2022-10-09T16:50:05.547Z,99422.41
2022-10-09T16:52:32.657Z,99423.50
2022-10-09T16:55:00.546Z,99427.34
2022-10-09T16:57:27.717Z,99425.88
2022-10-09T16:59:54.644Z,99428.91
2022-10-09T17:02:21.573Z,99426.59
2022-10-09T17:04:48.588Z,99423.50
2022-10-09T17:07:15.497Z,99427.31
2022-10-09T17:09:43.254Z,99435.22
2022-10-09T17:12:11.245Z,99435.44
2022-10-09T17:14:38.245Z,99429.38
2022-10-09T17:17:05.602Z,99432.34
2022-10-09T17:19:32.998Z,99429.81
2022-10-09T17:22:00.954Z,99434.72
2022-10-09T17:24:27.995Z,99434.72
2022-10-09T17:26:55.197Z,99437.47
2022-10-09T17:29:22.286Z,99437.72
2022-10-09T17:31:49.659Z,99434.97
2022-10-09T17:34:16.696Z,99440.72
2022-10-09T17:36:44.149Z,99440.09
2022-10-09T17:39:15.751Z,99443.06
2022-10-09T17:41:45.912Z,99443.06
2022-10-09T17:44:13.369Z,99438.91
2022-10-09T17:46:40.366Z,99431.72
2022-10-09T17:49:07.411Z,99435.53
2022-10-09T17:51:39.787Z,99445.91
2022-10-09T17:54:11.805Z,99448.03
2022-10-09T17:56:39.354Z,99443.63
2022-10-09T17:59:06.390Z,99448.53
2022-10-09T18:01:33.822Z,99453.41
2022-10-09T18:04:00.813Z,99453.41
2022-10-09T18:06:27.891Z,99448.16
2022-10-09T18:08:55.763Z,99453.88
2022-10-09T18:11:23.176Z,99451.75
2022-10-09T18:13:50.136Z,99450.06
2022-10-09T18:16:19.207Z,99444.59
2022-10-09T18:18:46.290Z,99454.72
2022-10-09T18:21:17.101Z,99457.69
2022-10-09T18:23:47.235Z,99456.03
2022-10-09T18:26:16.309Z,99460.91
2022-10-09T18:28:46.040Z,99460.28
2022-10-09T18:31:17.646Z,99464.13
2022-10-09T18:33:46.319Z,99464.38
2022-10-09T18:36:19.703Z,99459.09
2022-10-09T18:38:47.947Z,99465.69
2022-10-09T18:41:14.949Z,99462.31
2022-10-09T18:43:41.889Z,99463.38
2022-10-09T18:46:32.498Z,99464.44
2022-10-09T18:48:59.759Z,99466.38
2022-10-09T18:51:26.842Z,99470.19
2022-10-09T18:54:02.013Z,99467.69
2022-10-09T18:56:30.418Z,99467.69
2022-10-09T18:58:57.687Z,99473.16
2022-10-09T19:01:24.693Z,99471.47
2022-10-09T19:03:51.836Z,99468.75
2022-10-09T19:06:19.374Z,99473.38
2022-10-09T19:08:46.531Z,99469.84
2022-10-09T19:11:15.717Z,99466.47
2022-10-09T19:13:43.256Z,99466.47
2022-10-09T19:16:10.663Z,99460.38
2022-10-09T19:18:38.186Z,99459.78
2022-10-09T19:21:07.123Z,99464.44
2022-10-09T19:23:34.577Z,99469.91
2022-10-09T19:26:01.899Z,99467.41
2022-10-09T19:28:33.436Z,99464.06
2022-10-09T19:31:02.869Z,99462.41
2022-10-09T19:33:30.365Z,99460.72
2022-10-09T19:35:57.776Z,99464.31
2022-10-09T19:38:25.251Z,99457.97
2022-10-09T19:40:52.514Z,99453.56
2022-10-09T19:43:19.847Z,99459.03
2022-10-09T19:45:49.438Z,99459.03
2022-10-09T19:48:18.104Z,99455.72
2022-10-09T19:50:45.579Z,99452.97
2022-10-09T19:53:12.753Z,99457.63
2022-10-09T19:55:39.751Z,99459.53
2022-10-09T19:58:07.018Z,99453.47
2022-10-09T20:00:33.953Z,99466.06
2022-10-09T20:03:00.945Z,99456.19
2022-10-09T20:05:27.891Z,99461.91
2022-10-09T20:07:54.831Z,99470.13
2022-10-09T20:10:21.786Z,99462.97
2022-10-09T20:12:48.949Z,99454.97
2022-10-09T20:15:16.163Z,99474.41
2022-10-09T20:17:43.153Z,99468.09
2022-10-09T20:20:10.500Z,99467.25
2022-10-09T20:22:37.478Z,99472.72
2022-10-09T20:25:05.091Z,99471.88
2022-10-09T20:27:31.995Z,99465.56
2022-10-09T20:29:58.954Z,99470.22
2022-10-09T20:32:25.962Z,99464.72
2022-10-09T20:34:52.888Z,99463.91
2022-10-09T20:37:19.832Z,99464.97
2022-10-09T20:39:46.820Z,99466.88
2022-10-09T20:42:13.806Z,99469.63
2022-10-09T20:44:40.746Z,99469.84
2022-10-09T20:47:07.946Z,99473.66
2022-10-09T20:49:34.909Z,99473.66
2022-10-09T20:52:03.444Z,99466.53
2022-10-09T20:54:30.707Z,99472.22
2022-10-09T20:56:59.909Z,99477.09
2022-10-09T20:59:27.043Z,99481.50
2022-10-09T21:01:54.008Z,99471.84
2022-10-09T21:04:20.919Z,99469.97
2022-10-09T21:06:47.808Z,99468.28
2022-10-09T21:09:14.812Z,99473.75
2022-10-09T21:11:42.086Z,99471.03
2022-10-09T21:14:09.805Z,99468.28
2022-10-09T21:16:36.728Z,99464.91
2022-10-09T21:19:04.437Z,99470.41
2022-10-09T21:21:31.516Z,99463.28
2022-10-09T21:23:59.075Z,99463.28
2022-10-09T21:26:26.124Z,99472.56
2022-10-09T21:28:56.901Z,99463.72
2022-10-09T21:31:28.651Z,99468.13
2022-10-09T21:33:55.842Z,99467.50
2022-10-09T21:36:31.833Z,99472.19
2022-10-09T21:38:58.858Z,99469.66
2022-10-09T21:41:26.321Z,99458.72
2022-10-09T21:43:53.282Z,99460.00
2022-10-09T21:46:20.194Z,99456.44
2022-10-09T21:48:47.219Z,99449.28
2022-10-09T21:51:14.137Z,99461.31
2022-10-09T21:53:41.061Z,99449.50
2022-10-09T21:56:10.025Z,99455.81
2022-10-09T21:58:37.735Z,99455.81
2022-10-09T22:01:04.833Z,99452.25
2022-10-09T22:03:33.356Z,99448.66
2022-10-09T22:06:00.361Z,99450.56
2022-10-09T22:08:27.299Z,99447.00
2022-10-09T22:10:54.239Z,99442.59
2022-10-09T22:13:21.922Z,99451.03
2022-10-09T22:15:51.106Z,99454.63
2022-10-09T22:18:18.840Z,99451.22
2022-10-09T22:20:47.996Z,99444.91
2022-10-09T22:23:15.128Z,99445.75
2022-10-09T22:25:42.067Z,99447.91
2022-10-09T22:28:09.044Z,99448.97
2022-10-09T22:30:36.070Z,99446.22
2022-10-09T22:33:03.078Z,99450.28
2022-10-09T22:35:30.026Z,99446.69
2022-10-09T22:37:57.576Z,99443.72
2022-10-09T22:40:24.543Z,99438.50
2022-10-09T22:42:51.614Z,99436.59
2022-10-09T22:45:18.818Z,99434.66
2022-10-09T22:47:48.022Z,99439.06
2022-10-09T22:50:15.048Z,99438.22
2022-10-09T22:52:41.962Z,99435.75
2022-10-09T22:55:09.248Z,99434.91
2022-10-09T22:57:36.200Z,99434.06
2022-10-09T23:00:03.590Z,99437.88
2022-10-09T23:02:30.484Z,99436.19
2022-10-09T23:04:57.443Z,99436.19
2022-10-09T23:07:24.833Z,99438.34
2022-10-09T23:09:51.800Z,99426.53
2022-10-09T23:12:18.701Z,99425.72
2022-10-09T23:14:45.763Z,99419.41
2022-10-09T23:17:12.662Z,99422.34
2022-10-09T23:19:39.596Z,99427.81
2022-10-09T23:22:06.493Z,99426.19
2022-10-09T23:24:33.390Z,99426.19
2022-10-09T23:27:00.312Z,99422.59
2022-10-09T23:29:27.248Z,99426.19
2022-10-09T23:31:54.238Z,99426.19
2022-10-09T23:34:21.221Z,99416.06
2022-10-09T23:36:48.119Z,99420.69
2022-10-09T23:39:15.158Z,99424.50
2022-10-09T23:41:42.145Z,99422.81
2022-10-09T23:44:09.058Z,99417.34
2022-10-09T23:46:37.869Z,99411.03
2022-10-09T23:49:04.955Z,99410.19
2022-10-09T23:51:31.974Z,99409.38
2022-10-09T23:53:59.070Z,99409.38
2022-10-09T23:56:31.317Z,99406.88
2022-10-09T23:58:58.904Z,99407.09
